Terminal Aerodrome Forecast
Issued by NWS

Home | Current Version | Previous Version | Text Only | Print | Product List | Glossary On
Versions: 1 2 3 4 5 6 7 8 9 10 11 12 13 14 15 16 17 18 19 20 21 22
000
FTUS41 KPBZ 251724
TAFAGC
TAF
KAGC 251724Z 2518/2618 26007KT P6SM FEW050 BKN250
     FM260700 17004KT P6SM VCSH BKN080
     FM261200 20005KT P6SM BKN045
     FM261600 21007KT P6SM BKN060=

USA.gov is the U.S. government's official web portal to all federal, state and local government web resources and services.